Time;durP1;ratioP1;P1;durP2;ratioP2;P2;SDS_P1;SDS_P2;PMS_P1;PMS_P2;Temp;Humidity;BMP_temperature;BMP_pressure;BME280_temperature;BME280_humidity;BME280_pressure;Samples;Min_cycle;Max_cycle;Signal;HPM_P1;HPM_P2
2022/07/31 00:00:27;;;;;;;15.75;14.35;;;16.00;99.90;;;-141.84;90.93;18056.25;5032017;28;20232;-67
2022/07/31 00:02:56;;;;;;;15.27;14.00;;;16.00;99.90;;;-141.84;91.35;18080.63;5027530;28;20974;-67
2022/07/31 00:05:25;;;;;;;15.23;13.93;;;15.90;99.90;;;-141.84;91.72;18050.16;5012873;28;20214;-68
2022/07/31 00:07:54;;;;;;;15.52;14.13;;;15.90;99.90;;;-141.84;91.82;18072.50;5012135;28;20250;-67
2022/07/31 00:10:22;;;;;;;14.95;13.63;;;15.90;99.90;;;-141.84;91.89;18060.31;5011863;28;20254;-66
2022/07/31 00:12:52;;;;;;;17.75;16.00;;;15.90;99.90;;;-141.84;91.91;18066.41;5012225;28;20273;-67
2022/07/31 00:15:21;;;;;;;15.60;14.30;;;15.90;99.90;;;-141.84;92.08;18040.00;5011829;28;20223;-66
2022/07/31 00:17:49;;;;;;;16.45;14.85;;;15.80;99.90;;;-141.84;92.14;18029.84;5012255;28;20203;-66
2022/07/31 00:20:19;;;;;;;16.42;15.02;;;15.80;99.90;;;-141.84;92.48;18035.94;5012295;28;20294;-67
2022/07/31 00:22:49;;;;;;;15.55;14.20;;;15.80;99.90;;;-141.84;92.46;18005.47;5011839;28;20234;-67
2022/07/31 00:25:18;;;;;;;16.48;15.10;;;15.80;99.90;;;-141.84;92.27;18040.00;5011842;28;20261;-67
2022/07/31 00:27:47;;;;;;;16.88;15.38;;;15.80;99.90;;;-141.84;92.40;18029.84;5011986;28;20223;-66
2022/07/31 00:30:16;;;;;;;15.82;14.43;;;15.80;99.90;;;-141.84;92.23;18021.72;5011745;28;20237;-67
2022/07/31 00:32:45;;;;;;;16.77;15.27;;;15.80;99.90;;;-141.84;92.12;18029.84;5011676;28;20213;-67
2022/07/31 00:35:16;;;;;;;17.88;16.25;;;15.80;99.90;;;-141.84;92.53;18005.47;5012398;28;20270;-67
2022/07/31 00:37:44;;;;;;;15.57;14.20;;;15.70;99.90;;;-141.84;92.67;18001.41;5011868;28;20223;-68
2022/07/31 00:40:16;;;;;;;16.80;15.30;;;15.70;99.90;;;-141.84;92.67;18037.97;5011713;28;20635;-67
2022/07/31 00:42:45;;;;;;;16.55;14.98;;;15.70;99.90;;;-141.84;92.88;17997.34;5011913;28;20230;-67
2022/07/31 00:45:14;;;;;;;15.35;14.05;;;15.70;99.90;;;-141.84;93.13;18009.53;5011620;28;20250;-68
2022/07/31 00:47:44;;;;;;;17.52;15.45;;;15.70;99.90;;;-141.84;93.33;17968.91;5012628;28;20203;-67
2022/07/31 00:50:12;;;;;;;16.10;14.70;;;15.60;99.90;;;-141.84;93.31;17997.34;5031778;28;20281;-66
2022/07/31 00:52:41;;;;;;;15.45;14.15;;;15.60;99.90;;;-141.84;93.42;18011.56;5014170;28;20321;-76
2022/07/31 00:55:10;;;;;;;15.27;13.88;;;15.60;99.90;;;-141.84;93.56;17989.22;5011649;28;20326;-77
2022/07/31 00:57:38;;;;;;;15.57;14.18;;;15.60;99.90;;;-141.84;93.48;17995.31;5011082;28;20234;-77
2022/07/31 01:00:08;;;;;;;16.13;14.63;;;15.50;99.90;;;-141.84;93.36;17985.16;5011395;28;20238;-75
2022/07/31 01:02:37;;;;;;;15.68;14.27;;;15.50;99.90;;;-141.84;93.05;17979.06;5011881;28;20195;-75
2022/07/31 01:05:17;;;;;;;15.25;14.00;;;15.50;99.90;;;-141.84;92.99;17975.00;5011733;28;20246;-75
2022/07/31 01:07:47;;;;;;;15.05;13.60;;;15.60;99.90;;;-141.84;92.73;17985.16;5011344;28;20237;-75
2022/07/31 01:10:35;;;;;;;15.57;14.18;;;15.60;99.90;;;-141.84;92.70;17962.81;5011766;28;20325;-76
2022/07/31 01:13:10;;;;;;;16.20;14.65;;;15.60;99.90;;;-141.84;92.44;17987.19;5011476;28;20706;-77
2022/07/31 01:15:40;;;;;;;15.93;14.50;;;15.50;99.90;;;-141.84;92.14;17983.13;5010864;28;20630;-75
2022/07/31 01:18:11;;;;;;;15.73;14.23;;;15.60;99.90;;;-141.84;92.56;17958.75;5010931;28;20229;-75
2022/07/31 01:20:48;;;;;;;15.32;13.93;;;15.50;99.90;;;-141.84;92.69;17964.84;5011097;28;20623;-75
2022/07/31 01:23:45;;;;;;;15.75;14.50;;;15.40;99.90;;;-141.84;92.99;18007.50;5011917;28;20241;-76
2022/07/31 01:26:37;;;;;;;16.52;15.05;;;15.40;99.90;;;-141.84;93.33;17940.47;5031285;28;20202;-76
2022/07/31 01:29:18;;;;;;;16.40;14.90;;;15.40;99.90;;;-141.84;93.51;17928.28;5011471;28;20728;-76
2022/07/31 01:31:56;;;;;;;16.13;14.80;;;15.40;99.90;;;-141.84;93.71;17964.84;5010776;28;20236;-75
2022/07/31 01:34:36;;;;;;;17.80;16.27;;;15.40;99.90;;;-141.84;93.51;17964.84;5011142;28;20250;-77
2022/07/31 01:37:13;;;;;;;16.75;15.15;;;15.40;99.90;;;-141.84;93.34;17981.09;5010994;28;20500;-76
2022/07/31 01:39:50;;;;;;;16.75;15.10;;;15.40;99.90;;;-141.84;92.96;17981.09;5011103;28;20308;-77
2022/07/31 01:42:22;;;;;;;16.35;14.93;;;15.40;99.90;;;-141.84;92.57;17989.22;5010880;28;20237;-76
2022/07/31 01:44:59;;;;;;;16.08;14.57;;;15.40;99.90;;;-141.84;92.62;18001.41;5010906;28;20186;-76
2022/07/31 01:47:31;;;;;;;17.65;15.82;;;15.40;99.90;;;-141.84;92.03;17983.13;5011385;28;20182;-76
2022/07/31 01:50:03;;;;;;;16.27;14.88;;;15.50;99.90;;;-141.84;91.99;17979.06;5031066;28;20281;-76
2022/07/31 01:52:34;;;;;;;16.58;15.18;;;15.40;99.90;;;-141.84;92.20;17920.13;5046052;28;20234;-76
2022/07/31 01:55:04;;;;;;;16.65;15.02;;;15.40;99.90;;;-141.84;92.76;17962.81;5036410;28;20249;-76
2022/07/31 01:57:34;;;;;;;16.67;15.27;;;15.30;99.90;;;-141.84;92.93;17954.69;5009848;28;20226;-77
2022/07/31 02:00:09;;;;;;;17.27;15.57;;;15.40;99.90;;;-141.84;93.19;17970.94;5009579;28;20728;-75
2022/07/31 02:02:59;;;;;;;16.98;15.55;;;15.30;99.90;;;-141.84;93.48;17938.44;5009417;28;20230;-75
2022/07/31 02:05:38;;;;;;;16.73;15.32;;;15.20;99.90;;;-141.84;93.67;17970.94;5009833;28;20195;-76
2022/07/31 02:08:09;;;;;;;16.15;14.75;;;15.20;99.90;;;-141.84;93.93;17958.75;5009926;28;20212;-76
2022/07/31 02:10:39;;;;;;;16.25;14.80;;;15.20;99.90;;;-141.84;93.99;17948.59;5012918;28;20586;-77
2022/07/31 02:13:07;;;;;;;17.63;16.13;;;15.20;99.90;;;-141.84;93.56;17930.31;5014423;28;20309;-75
2022/07/31 02:15:38;;;;;;;16.10;14.70;;;15.30;99.90;;;-141.84;93.43;17926.25;5014308;28;20333;-76
2022/07/31 02:18:09;;;;;;;17.17;15.70;;;15.20;99.90;;;-141.84;93.59;17920.13;5014127;28;20234;-76
2022/07/31 02:20:40;;;;;;;17.60;16.00;;;15.20;99.90;;;-141.84;93.47;17914.03;5014103;28;20282;-77
2022/07/31 02:23:09;;;;;;;17.52;16.00;;;15.10;99.90;;;-141.84;93.31;17926.25;5014548;28;20257;-76
2022/07/31 02:25:38;;;;;;;16.75;15.13;;;15.20;99.90;;;-141.84;93.54;17909.97;5013974;28;20608;-75
2022/07/31 02:28:12;;;;;;;17.33;15.73;;;15.10;99.90;;;-141.84;93.87;17916.06;5013975;28;20303;-76
2022/07/31 02:30:45;;;;;;;17.77;16.17;;;15.10;99.90;;;-141.84;93.08;17912.00;5013942;28;20219;-75
2022/07/31 02:33:20;;;;;;;17.13;15.63;;;15.20;99.90;;;-141.84;92.97;17891.69;5013681;28;20240;-77
2022/07/31 02:35:51;;;;;;;17.88;15.98;;;15.20;99.90;;;-141.84;92.86;17940.47;5013875;28;20186;-75
2022/07/31 02:38:22;;;;;;;16.80;15.27;;;15.20;99.90;;;-141.84;92.92;17914.03;5014462;28;20201;-76
2022/07/31 02:40:54;;;;;;;17.10;15.60;;;15.10;99.90;;;-141.84;92.93;17912.00;5013765;28;20798;-76
2022/07/31 02:43:24;;;;;;;16.63;15.07;;;15.10;99.90;;;-141.84;92.96;17905.91;5013908;28;20329;-77
2022/07/31 02:45:54;;;;;;;16.92;15.52;;;15.10;99.90;;;-141.84;92.83;17912.00;5013985;28;20229;-76
2022/07/31 02:48:24;;;;;;;16.98;15.48;;;15.10;99.90;;;-141.84;92.35;17912.00;5020403;28;20226;-78
2022/07/31 02:50:53;;;;;;;17.38;15.88;;;15.10;99.90;;;-141.84;92.39;17901.84;5030741;28;20221;-76
2022/07/31 02:53:22;;;;;;;16.50;15.00;;;15.10;99.90;;;-141.84;92.71;17907.94;5013508;28;20222;-75
2022/07/31 02:55:51;;;;;;;16.30;14.80;;;15.00;99.90;;;-141.84;92.85;17907.94;5013411;28;20223;-75
2022/07/31 02:58:19;;;;;;;17.00;15.45;;;15.00;99.90;;;-141.84;92.84;17891.69;5013195;28;20702;-75
2022/07/31 03:00:48;;;;;;;16.67;15.25;;;15.00;99.90;;;-141.84;92.72;17916.06;5013308;28;20250;-75
2022/07/31 03:03:17;;;;;;;16.63;15.13;;;15.00;99.90;;;-141.84;92.59;17905.91;5013144;28;20601;-77
2022/07/31 03:05:45;;;;;;;18.02;16.20;;;15.00;99.90;;;-141.84;92.71;17883.56;5013205;28;20693;-67
2022/07/31 03:08:13;;;;;;;18.73;16.83;;;15.00;99.90;;;-141.84;92.56;17903.88;5013956;28;20252;-68
2022/07/31 03:10:42;;;;;;;18.02;16.25;;;15.00;99.90;;;-141.84;92.65;17893.72;5013175;28;20261;-68
2022/07/31 03:13:12;;;;;;;16.60;14.90;;;14.90;99.90;;;-141.84;93.04;17879.50;5013055;28;20230;-67
2022/07/31 03:15:45;;;;;;;18.75;17.05;;;15.00;99.90;;;-141.84;93.06;17907.94;5012934;28;20608;-69
2022/07/31 03:18:20;;;;;;;17.45;15.95;;;15.00;99.90;;;-141.84;93.15;17851.06;5012704;28;20225;-68
2022/07/31 03:20:51;;;;;;;18.75;16.85;;;15.00;99.90;;;-141.84;93.32;17863.25;5012406;28;20198;-68
2022/07/31 03:23:22;;;;;;;18.60;16.80;;;14.90;99.90;;;-141.84;93.24;17881.53;5013107;28;20197;-67
2022/07/31 03:25:52;;;;;;;19.77;17.92;;;14.90;99.90;;;-141.84;93.01;17877.47;5012662;28;20722;-68
2022/07/31 03:28:21;;;;;;;19.80;18.00;;;14.90;99.90;;;-141.84;92.05;17883.56;5012668;28;20225;-67
2022/07/31 03:30:52;;;;;;;19.15;17.45;;;14.90;99.90;;;-141.84;91.24;17855.13;5012559;28;20227;-68
2022/07/31 03:33:24;;;;;;;20.05;18.05;;;14.90;99.90;;;-141.84;90.71;17887.63;5012437;28;20242;-68
2022/07/31 03:35:54;;;;;;;17.65;16.15;;;14.90;99.90;;;-141.84;90.24;17901.84;5012791;28;20203;-66
2022/07/31 03:38:22;;;;;;;19.38;17.73;;;15.00;99.90;;;-141.84;90.69;17873.41;5012841;28;20650;-66
2022/07/31 03:41:10;;;;;;;19.33;17.63;;;15.00;99.90;;;-141.84;91.00;17875.44;5012868;28;20227;-67
2022/07/31 03:43:41;;;;;;;19.98;18.17;;;14.90;99.90;;;-141.84;90.75;17851.06;5012322;28;20318;-67
2022/07/31 03:46:18;;;;;;;19.20;17.48;;;15.00;99.90;;;-141.84;90.96;17863.25;5012392;28;20226;-66
2022/07/31 03:48:50;;;;;;;18.88;17.15;;;14.90;99.90;;;-141.84;91.36;17863.25;5012106;28;20319;-67
2022/07/31 03:51:20;;;;;;;19.88;18.00;;;14.90;99.90;;;-141.84;91.49;17891.69;5012332;28;20262;-67
2022/07/31 03:53:50;;;;;;;19.73;17.63;;;14.90;99.90;;;-141.84;91.55;17887.63;5012259;28;20620;-68
2022/07/31 03:56:19;;;;;;;18.65;16.95;;;14.90;99.90;;;-141.84;91.43;17905.91;5012994;28;20191;-68
2022/07/31 03:58:48;;;;;;;17.73;16.23;;;14.90;99.90;;;-141.84;91.81;17887.63;5012633;28;20237;-68
2022/07/31 04:01:21;;;;;;;19.17;17.48;;;14.90;99.90;;;-141.84;91.52;17885.59;5011937;28;20231;-67
2022/07/31 04:03:59;;;;;;;18.75;16.98;;;15.00;99.90;;;-141.84;90.29;17903.88;5012245;28;20309;-67
2022/07/31 04:06:27;;;;;;;18.33;16.73;;;15.00;99.90;;;-141.84;89.84;17901.84;5012281;28;20696;-68
2022/07/31 04:08:55;;;;;;;19.13;17.42;;;15.00;99.90;;;-141.84;90.05;17873.41;5012425;28;20218;-67
2022/07/31 04:11:23;;;;;;;20.13;18.23;;;15.10;99.90;;;-141.84;89.98;17912.00;5012791;28;20268;-67
2022/07/31 04:13:51;;;;;;;18.90;17.20;;;15.10;99.90;;;-141.84;89.48;17905.91;5011811;28;20238;-68
2022/07/31 04:16:19;;;;;;;19.48;17.63;;;15.10;99.90;;;-141.84;88.66;17942.50;5011717;28;20230;-67
2022/07/31 04:18:47;;;;;;;17.42;15.70;;;15.20;99.90;;;-141.84;89.20;17928.28;5012326;28;20237;-67
2022/07/31 04:21:20;;;;;;;18.52;16.92;;;15.20;99.90;;;-141.84;89.73;17916.06;5012092;28;20230;-68
2022/07/31 04:23:48;;;;;;;21.02;17.55;;;15.20;99.90;;;-141.84;89.71;17922.16;5012283;28;20284;-67
2022/07/31 04:26:17;;;;;;;18.85;17.02;;;15.20;99.90;;;-141.84;88.65;17960.78;5012635;28;20289;-67
2022/07/31 04:28:52;;;;;;;18.65;16.92;;;15.30;99.90;;;-141.84;87.99;18035.94;5011776;28;20233;-69
2022/07/31 04:31:21;;;;;;;19.00;17.30;;;15.30;99.90;;;-141.84;88.27;17936.41;5011300;28;20230;-68
2022/07/31 04:33:50;;;;;;;18.38;16.77;;;15.40;99.90;;;-141.84;88.19;17940.47;5011339;28;20338;-67
2022/07/31 04:36:25;;;;;;;18.85;17.10;;;15.40;99.90;;;-141.84;87.38;17987.19;5011867;28;20230;-67
2022/07/31 04:38:58;;;;;;;19.58;17.67;;;15.40;99.90;;;-141.84;86.78;17970.94;5011487;28;20317;-68
2022/07/31 04:41:27;;;;;;;17.55;16.00;;;15.50;99.90;;;-141.84;86.25;18009.53;5012045;28;20293;-66
2022/07/31 04:43:57;;;;;;;17.15;15.60;;;15.60;99.90;;;-141.84;86.78;18003.44;5010873;28;20233;-68
2022/07/31 04:46:25;;;;;;;18.45;16.95;;;15.70;99.90;;;-141.84;86.30;18029.84;5011216;28;20233;-67
2022/07/31 04:48:53;;;;;;;18.45;16.85;;;15.70;99.90;;;-141.84;85.85;18058.28;5022545;28;20708;-67
2022/07/31 04:51:24;;;;;;;19.10;17.50;;;15.80;99.90;;;-141.84;85.13;18068.44;5024568;28;20230;-67
2022/07/31 04:53:52;;;;;;;18.35;16.73;;;15.90;99.90;;;-141.84;83.89;18109.06;5011255;28;20246;-67
2022/07/31 04:56:34;;;;;;;18.45;16.77;;;16.00;99.90;;;-141.84;83.45;18143.59;5011803;28;20205;-67
2022/07/31 04:59:07;;;;;;;18.38;16.70;;;16.10;99.90;;;-141.84;81.47;18277.69;5011435;28;20211;-68
2022/07/31 05:01:36;;;;;;;18.05;16.25;;;16.20;99.90;;;-141.84;81.34;18275.66;5027414;28;20250;-67
2022/07/31 05:04:06;;;;;;;16.50;15.10;;;16.30;99.90;;;-141.84;78.90;18535.69;5018158;28;20562;-69
2022/07/31 05:06:38;;;;;;;15.07;13.68;;;16.80;99.90;;;-141.84;72.32;19139.16;5011184;28;20222;-69
2022/07/31 05:09:08;;;;;;;11.75;10.75;;;17.70;99.90;;;-141.84;67.76;19880.91;5011001;28;20227;-68
2022/07/31 05:11:45;;;;;;;11.10;10.20;;;18.70;99.90;;;-141.84;62.16;20543.53;5011180;28;20230;-68
2022/07/31 05:14:17;;;;;;;11.25;10.05;;;19.70;99.90;;;-141.84;58.92;20937.91;5011299;28;20280;-69
2022/07/31 05:16:46;;;;;;;10.23;9.27;;;20.30;99.90;;;-141.84;55.32;21175.75;5010798;28;20601;-69
2022/07/31 05:19:14;;;;;;;11.20;10.20;;;20.90;99.90;;;-141.84;54.06;21314.00;5010662;28;20230;-68
2022/07/31 05:21:45;;;;;;;10.90;9.82;;;21.10;99.90;;;-141.84;52.99;21395.34;5010729;28;20233;-68
2022/07/31 05:24:20;;;;;;;11.20;10.10;;;21.30;99.90;;;-141.84;52.57;21395.34;5010698;28;20317;-67
2022/07/31 05:27:01;;;;;;;11.20;10.10;;;21.50;99.90;;;-141.84;53.74;21297.75;5010506;28;20226;-68
2022/07/31 05:29:30;;;;;;;10.13;9.23;;;21.20;99.90;;;-141.84;55.28;21179.81;5010765;28;20863;-68
2022/07/31 05:31:59;;;;;;;10.65;9.65;;;20.90;99.90;;;-141.84;58.13;20986.69;5010562;28;20221;-66
2022/07/31 05:34:29;;;;;;;11.45;10.43;;;20.70;99.90;;;-141.84;60.71;20795.59;5010427;28;20230;-69
2022/07/31 05:37:00;;;;;;;11.18;10.18;;;20.30;99.90;;;-141.84;62.67;20667.53;5010703;28;20233;-67
2022/07/31 05:39:29;;;;;;;11.38;10.20;;;20.10;99.90;;;-141.84;63.64;20565.88;5010516;28;20717;-67
2022/07/31 05:41:58;;;;;;;11.60;10.52;;;19.90;99.90;;;-141.84;65.34;20466.28;5010408;28;20566;-68
2022/07/31 05:44:26;;;;;;;11.77;10.70;;;19.70;99.90;;;-141.84;66.05;20382.94;5010402;28;20205;-68
2022/07/31 05:46:54;;;;;;;11.77;10.65;;;19.60;99.90;;;-141.84;66.02;20338.22;5010490;28;20312;-66
2022/07/31 05:49:22;;;;;;;11.88;10.68;;;19.60;99.90;;;-141.84;67.26;20244.72;5041025;28;20315;-69
2022/07/31 05:51:53;;;;;;;11.35;10.35;;;19.50;99.90;;;-141.84;66.66;20269.13;5050122;28;20606;-66
2022/07/31 05:54:22;;;;;;;11.88;10.75;;;19.50;99.90;;;-141.84;66.49;20303.66;5049796;28;20620;-67
2022/07/31 05:56:50;;;;;;;12.38;11.23;;;19.60;99.90;;;-141.84;67.38;20265.03;5050090;28;20284;-68
2022/07/31 05:59:19;;;;;;;12.45;11.38;;;19.60;99.90;;;-141.84;66.84;20191.88;5050596;28;20296;-66
2022/07/31 06:01:47;;;;;;;10.35;9.45;;;19.70;99.90;;;-141.84;67.51;20208.13;5049628;28;20740;-67
2022/07/31 06:04:15;;;;;;;11.98;11.00;;;19.80;99.90;;;-141.84;66.23;20287.41;5034734;28;20582;-66
2022/07/31 06:06:43;;;;;;;12.40;11.35;;;19.90;99.90;;;-141.84;66.28;20328.06;5030008;28;20304;-67
2022/07/31 06:09:12;;;;;;;12.45;11.35;;;20.10;99.90;;;-141.84;64.35;20441.88;5029695;28;20747;-69
2022/07/31 06:11:41;;;;;;;11.15;10.05;;;20.30;99.90;;;-141.84;64.01;20496.78;5030753;28;20237;-66
2022/07/31 06:14:09;;;;;;;10.60;9.70;;;20.60;99.90;;;-141.84;62.49;20537.44;5030907;28;20218;-67
2022/07/31 06:16:37;;;;;;;10.73;9.68;;;20.80;99.90;;;-141.84;61.10;20683.78;5030053;28;20230;-67
2022/07/31 06:19:06;;;;;;;10.25;9.35;;;21.10;99.90;;;-141.84;59.48;20830.16;5030628;28;20276;-68
2022/07/31 06:21:34;;;;;;;10.65;9.75;;;21.40;99.90;;;-141.84;59.04;20824.06;5030796;28;20310;-67
2022/07/31 06:24:02;;;;;;;12.40;9.48;;;21.60;99.90;;;-141.84;58.82;20830.16;5030481;28;20221;-70
2022/07/31 06:26:30;;;;;;;9.23;8.23;;;21.50;99.90;;;-141.84;58.73;20866.75;5030680;28;20210;-68
2022/07/31 06:29:00;;;;;;;10.70;9.60;;;21.60;99.90;;;-141.84;56.56;20984.66;5030860;28;20614;-67
2022/07/31 06:31:28;;;;;;;9.90;8.95;;;21.90;99.90;;;-141.84;57.17;20982.63;5030270;28;20234;-67
2022/07/31 06:33:56;;;;;;;9.95;8.88;;;22.00;99.90;;;-141.84;56.47;21019.22;5030097;28;20347;-68
2022/07/31 06:36:25;;;;;;;9.90;9.00;;;22.00;99.90;;;-141.84;56.58;20980.59;5029717;28;20760;-67
2022/07/31 06:38:53;;;;;;;9.02;8.15;;;22.00;99.90;;;-141.84;57.08;21013.13;5030676;28;20198;-68
2022/07/31 06:44:04;;;;;;;9.63;8.82;;;22.10;99.90;;;-141.84;57.17;21009.03;5005121;28;20295;-67
2022/07/31 06:46:32;;;;;;;9.93;9.13;;;22.10;99.90;;;-141.84;56.50;21045.63;5008625;28;20227;-66
2022/07/31 06:49:00;;;;;;;9.50;8.65;;;22.10;99.90;;;-141.84;57.48;21015.16;5033713;28;20316;-68
2022/07/31 06:51:35;;;;;;;9.98;9.07;;;22.20;99.90;;;-141.84;56.87;21096.47;5048667;28;20716;-67
2022/07/31 06:54:06;;;;;;;10.18;9.27;;;22.40;99.90;;;-141.84;56.22;21082.25;5048653;28;20229;-68
2022/07/31 06:56:37;;;;;;;10.57;9.63;;;22.30;99.90;;;-141.84;56.44;21070.03;5049816;28;20186;-68
2022/07/31 06:59:07;;;;;;;9.20;8.40;;;22.20;99.90;;;-141.84;56.16;21084.28;5053842;28;20192;-66
2022/07/31 07:01:35;;;;;;;10.52;9.52;;;22.20;99.90;;;-141.84;56.37;21061.91;5052694;28;20221;-67
2022/07/31 07:04:04;;;;;;;9.77;8.80;;;22.10;99.90;;;-141.84;57.43;20986.69;5039379;28;20225;-66
2022/07/31 07:06:32;;;;;;;9.60;8.43;;;22.00;99.90;;;-141.84;57.67;20970.41;5033215;28;20240;-68
2022/07/31 07:09:00;;;;;;;9.48;8.73;;;22.00;99.90;;;-141.84;57.28;20996.84;5030566;28;20446;-69
2022/07/31 07:11:28;;;;;;;9.50;8.70;;;22.00;99.90;;;-141.84;56.65;21053.78;5033144;28;20615;-68
2022/07/31 07:13:56;;;;;;;8.48;7.60;;;22.00;99.90;;;-141.84;58.07;21009.03;5033011;28;20723;-69
2022/07/31 07:16:26;;;;;;;9.52;8.73;;;22.00;99.90;;;-141.84;57.50;20988.72;5032752;28;20717;-69
2022/07/31 07:18:54;;;;;;;10.20;9.00;;;22.00;99.90;;;-141.84;57.75;21002.94;5032816;28;20745;-68
2022/07/31 07:21:23;;;;;;;11.43;9.25;;;22.00;99.90;;;-141.84;57.52;20998.88;5033460;28;20226;-67
2022/07/31 07:23:51;;;;;;;9.70;8.90;;;22.00;99.90;;;-141.84;57.33;21041.56;5033040;28;20297;-68
2022/07/31 07:26:19;;;;;;;10.95;9.30;;;22.00;99.90;;;-141.84;58.07;21021.25;5033576;28;20213;-67
2022/07/31 07:28:47;;;;;;;9.60;8.70;;;22.10;99.90;;;-141.84;58.55;21009.03;5033165;28;20229;-67
2022/07/31 07:31:15;;;;;;;9.73;9.02;;;22.10;99.90;;;-141.84;56.53;21004.97;5032374;28;20230;-68
2022/07/31 07:33:46;;;;;;;10.23;9.27;;;22.10;99.90;;;-141.84;57.38;20994.81;5032262;28;20781;-69
2022/07/31 07:36:14;;;;;;;10.93;9.18;;;22.20;99.90;;;-141.84;58.01;20939.94;5032938;28;20230;-68
2022/07/31 07:38:53;;;;;;;9.95;8.98;;;22.10;99.90;;;-141.84;58.51;20923.66;5032586;28;20219;-69
2022/07/31 07:41:23;;;;;;;10.93;10.00;;;22.00;99.90;;;-141.84;58.30;20927.72;5033340;28;20202;-66
2022/07/31 07:43:52;;;;;;;10.38;9.50;;;21.90;99.90;;;-141.84;59.88;20860.66;5032647;28;20226;-67
2022/07/31 07:46:21;;;;;;;8.85;7.95;;;21.80;99.90;;;-141.84;59.61;20883.00;5032215;28;20256;-68
2022/07/31 07:48:52;;;;;;;9.90;9.10;;;21.80;99.90;;;-141.84;58.92;20885.03;5044588;28;20244;-68
2022/07/31 07:51:21;;;;;;;9.95;9.05;;;22.00;99.90;;;-141.84;58.87;20919.59;5052776;28;20300;-67
2022/07/31 07:53:49;;;;;;;10.05;9.07;;;22.00;99.90;;;-141.84;58.16;20921.63;5051905;28;20316;-67
2022/07/31 07:56:18;;;;;;;9.68;8.80;;;21.90;99.90;;;-141.84;58.16;20923.66;5052804;28;20201;-68
2022/07/31 07:58:47;;;;;;;9.43;8.00;;;22.00;99.90;;;-141.84;58.57;20909.44;5052285;28;20236;-68
2022/07/31 08:01:16;;;;;;;8.82;8.05;;;22.10;99.90;;;-141.84;57.64;20994.81;5051991;28;20225;-66
2022/07/31 08:03:45;;;;;;;8.88;8.07;;;22.30;99.90;;;-141.84;57.01;21027.34;5041258;28;20226;-68
2022/07/31 08:06:21;;;;;;;8.75;8.05;;;22.50;99.90;;;-141.84;56.91;21078.16;5032286;28;20244;-68
2022/07/31 08:08:50;;;;;;;8.52;7.82;;;22.70;99.90;;;-141.84;56.08;21106.63;5031498;28;20532;-67
2022/07/31 08:11:21;;;;;;;9.50;8.18;;;22.80;99.90;;;-141.84;56.27;21106.63;5032486;28;20546;-68
2022/07/31 08:13:50;;;;;;;10.27;8.00;;;22.90;99.90;;;-141.84;57.23;21061.91;5031938;28;20225;-68
2022/07/31 08:16:19;;;;;;;8.57;7.88;;;22.80;99.90;;;-141.84;57.04;21098.50;5031939;28;20724;-68
2022/07/31 08:18:48;;;;;;;9.30;8.43;;;22.90;99.90;;;-141.84;56.12;21139.16;5031770;28;20800;-71
2022/07/31 08:21:16;;;;;;;9.82;8.93;;;23.00;99.90;;;-141.84;55.68;21139.16;5032134;28;20756;-74
2022/07/31 08:23:46;;;;;;;7.78;6.97;;;23.10;99.90;;;-141.84;56.79;21112.72;5031825;28;20302;-76
2022/07/31 08:26:14;;;;;;;8.93;8.10;;;23.00;99.90;;;-141.84;56.36;21155.44;5032669;28;20365;-76
2022/07/31 08:28:42;;;;;;;8.02;7.22;;;23.00;99.90;;;-141.84;55.17;21216.41;5031741;28;20246;-76
2022/07/31 08:31:19;;;;;;;9.20;7.93;;;23.10;99.90;;;-141.84;55.81;21177.78;5011826;28;20605;-76
2022/07/31 08:33:47;;;;;;;7.75;7.05;;;23.10;99.90;;;-141.84;55.91;21139.16;5011969;28;20645;-78
2022/07/31 08:36:15;;;;;;;9.70;8.85;;;23.20;99.90;;;-141.84;56.34;21141.19;5011975;28;20241;-77
2022/07/31 08:38:46;;;;;;;9.52;8.38;;;23.10;99.90;;;-141.84;55.93;21126.97;5011392;28;20301;-77
2022/07/31 08:41:14;;;;;;;8.40;7.47;;;23.10;99.90;;;-141.84;56.51;21116.78;5015478;28;20229;-77
2022/07/31 08:43:42;;;;;;;8.55;7.75;;;23.00;99.90;;;-141.84;57.25;21049.72;5031457;28;20308;-75
2022/07/31 08:46:32;;;;;;;9.27;8.57;;;22.80;99.90;;;-141.84;56.70;21061.91;5031314;28;20244;-77
2022/07/31 08:49:03;;;;;;;9.38;8.57;;;22.80;99.90;;;-141.84;57.24;21023.28;5044201;28;20225;-76
2022/07/31 08:51:35;;;;;;;8.93;8.02;;;22.70;99.90;;;-141.84;58.21;20974.50;5051691;28;20282;-76
2022/07/31 08:54:24;;;;;;;9.05;8.18;;;22.60;99.90;;;-141.84;57.20;21033.44;5051091;28;20308;-76
2022/07/31 08:56:53;;;;;;;8.30;7.50;;;22.70;99.90;;;-141.84;57.05;21017.19;5051365;28;20236;-78
2022/07/31 08:59:22;;;;;;;8.05;7.40;;;22.60;99.90;;;-141.84;58.01;20994.81;5051735;28;20205;-76
2022/07/31 09:01:51;;;;;;;7.93;7.10;;;22.70;99.90;;;-141.84;57.29;21074.09;5050792;28;20295;-77
2022/07/31 09:04:19;;;;;;;8.30;7.57;;;22.80;99.90;;;-141.84;56.44;21088.34;5035722;28;20237;-78
2022/07/31 09:06:48;;;;;;;7.60;6.97;;;22.90;99.90;;;-141.84;56.84;21049.72;5031320;28;20240;-74
2022/07/31 09:09:17;;;;;;;7.60;6.95;;;22.80;99.90;;;-141.84;56.32;21061.91;5030738;28;20222;-76
2022/07/31 09:11:52;;;;;;;8.85;6.50;;;22.90;99.90;;;-141.84;55.90;21110.69;5031366;28;20294;-76
2022/07/31 09:14:31;;;;;;;7.68;7.00;;;23.00;99.90;;;-141.84;55.03;21090.38;5031702;28;20265;-76
2022/07/31 09:16:59;;;;;;;7.30;6.55;;;22.90;99.90;;;-141.84;55.53;21072.06;5031166;28;20238;-76
2022/07/31 09:19:38;;;;;;;6.90;6.30;;;23.00;99.90;;;-141.84;55.99;21068.00;5029969;28;20579;-75
2022/07/31 09:22:23;;;;;;;7.45;6.75;;;23.00;99.90;;;-141.84;55.04;21155.44;5030671;28;20328;-76
2022/07/31 09:24:52;;;;;;;7.18;6.55;;;23.00;99.90;;;-141.84;54.34;21145.25;5029968;28;20338;-76
2022/07/31 09:27:28;;;;;;;7.43;6.43;;;23.10;99.90;;;-141.84;54.64;21169.66;5031011;28;20245;-75
2022/07/31 09:29:57;;;;;;;6.32;5.80;;;23.20;99.90;;;-141.84;54.18;21210.31;5030460;28;20230;-78
2022/07/31 09:32:25;;;;;;;6.50;5.90;;;23.30;99.90;;;-141.84;54.00;21210.31;5030531;28;20717;-79
2022/07/31 09:34:53;;;;;;;7.20;6.60;;;23.40;99.90;;;-141.84;53.60;21232.69;5030080;28;20270;-76
2022/07/31 09:37:26;;;;;;;7.20;6.18;;;23.40;99.90;;;-141.84;53.90;21248.94;5029945;28;20225;-77
2022/07/31 09:39:56;;;;;;;7.18;6.55;;;23.50;99.90;;;-141.84;53.32;21228.63;5030118;28;20230;-76
2022/07/31 09:42:37;;;;;;;7.28;6.50;;;23.50;99.90;;;-141.84;53.15;21269.28;5027421;28;20226;-76
2022/07/31 09:45:21;;;;;;;7.50;6.28;;;23.60;99.90;;;-141.84;53.16;21269.28;5037909;28;20222;-75
2022/07/31 09:48:04;;;;;;;8.77;6.25;;;23.60;99.90;;;-141.84;52.94;21344.50;5036611;28;20200;-76
2022/07/31 09:50:33;;;;;;;7.57;6.80;;;23.70;99.90;;;-141.84;51.98;21342.47;5025804;28;20186;-77
2022/07/31 09:53:02;;;;;;;7.70;6.72;;;23.80;99.90;;;-141.84;51.35;21366.88;5029112;28;20654;-78
2022/07/31 09:55:30;;;;;;;6.68;6.05;;;23.90;99.90;;;-141.84;52.11;21383.13;5026032;28;20229;-77
2022/07/31 09:58:01;;;;;;;6.82;5.75;;;23.90;99.90;;;-141.84;51.39;21372.97;5028333;28;20654;-76
2022/07/31 10:00:30;;;;;;;5.70;5.20;;;23.90;99.90;;;-141.84;49.94;21407.53;5026193;28;20340;-77
2022/07/31 10:03:00;;;;;;;6.03;5.50;;;24.00;99.90;;;-141.84;50.09;21440.06;5028592;28;20221;-77
2022/07/31 10:05:30;;;;;;;6.43;5.72;;;24.00;99.90;;;-141.84;49.83;21466.50;5026401;28;20677;-75
2022/07/31 10:08:00;;;;;;;6.82;5.25;;;24.10;99.90;;;-141.84;50.38;21470.56;5028278;28;20317;-78
2022/07/31 10:10:30;;;;;;;5.60;5.10;;;24.20;99.90;;;-141.84;49.60;21494.97;5025775;28;20602;-77
2022/07/31 10:13:07;;;;;;;4.60;4.20;;;24.30;99.90;;;-141.84;46.81;21551.91;5028180;28;20713;-77
2022/07/31 10:15:40;;;;;;;3.95;3.65;;;24.40;99.90;;;-141.84;45.18;21633.22;5026758;28;20306;-76